Time;durP1;ratioP1;P1;durP2;ratioP2;P2;SDS_P1;SDS_P2;PMS_P1;PMS_P2;Temp;Humidity;BMP_temperature;BMP_pressure;BME280_temperature;BME280_humidity;BME280_pressure;Samples;Min_cycle;Max_cycle;Signal;HPM_P1;HPM_P2
2022/11/26 00:00:41;;;;;;;15.00;7.65;;;;;;;3.84;100.00;96719.31;5068369;28;24439;-71
2022/11/26 00:03:08;;;;;;;34.58;18.95;;;;;;;3.80;100.00;96720.25;5067414;28;25082;-71
2022/11/26 00:05:37;;;;;;;130.50;59.92;;;;;;;3.81;100.00;96721.94;5059518;28;24438;-71
2022/11/26 00:08:03;;;;;;;131.27;61.37;;;;;;;3.85;100.00;96718.41;5059590;28;24442;-72
2022/11/26 00:10:34;;;;;;;50.85;27.67;;;;;;;3.85;100.00;96725.28;5060215;28;25044;-72
2022/11/26 00:13:01;;;;;;;12.73;7.10;;;;;;;3.75;100.00;96724.63;5067205;28;24472;-71
2022/11/26 00:15:30;;;;;;;12.10;4.50;;;;;;;3.69;100.00;96729.03;5057052;28;24465;-71
2022/11/26 00:17:57;;;;;;;8.90;3.63;;;;;;;3.67;100.00;96725.66;5055521;28;24439;-71
2022/11/26 00:20:29;;;;;;;7.90;3.65;;;;;;;3.62;100.00;96736.00;5067514;28;24947;-73
2022/11/26 00:23:02;;;;;;;7.43;3.50;;;;;;;3.60;100.00;96730.91;5068681;28;24876;-72
2022/11/26 00:25:39;;;;;;;7.10;3.80;;;;;;;3.62;100.00;96743.69;5066078;28;24915;-72
2022/11/26 00:28:24;;;;;;;7.65;4.43;;;;;;;3.58;100.00;96737.78;5068306;28;24438;-72
2022/11/26 00:30:50;;;;;;;6.90;3.75;;;;;;;3.52;100.00;96747.28;5066220;28;24991;-71
2022/11/26 00:33:17;;;;;;;8.88;3.75;;;;;;;3.51;100.00;96755.84;5067902;28;24450;-71
2022/11/26 00:35:45;;;;;;;10.13;3.58;;;;;;;3.50;100.00;96754.19;5057913;28;24802;-71
2022/11/26 00:38:16;;;;;;;6.35;3.22;;;;;;;3.51;100.00;96759.25;5062963;28;25072;-72
2022/11/26 00:40:42;;;;;;;5.45;2.92;;;;;;;3.59;100.00;96756.53;5068420;28;25015;-72
2022/11/26 00:43:10;;;;;;;7.38;3.85;;;;;;;3.62;100.00;96761.63;5069589;28;24434;-71
2022/11/26 00:45:37;;;;;;;19.02;5.05;;;;;;;3.72;100.00;96757.16;5057339;28;25005;-71
2022/11/26 00:48:04;;;;;;;7.00;4.53;;;;;;;3.77;100.00;96760.47;5061900;28;24458;-70
2022/11/26 00:50:36;;;;;;;6.53;3.87;;;;;;;3.85;100.00;96762.00;5068446;28;24517;-72
2022/11/26 00:53:04;;;;;;;7.55;3.45;;;;;;;3.88;100.00;96768.78;5065122;28;24435;-73
2022/11/26 00:55:34;;;;;;;5.90;3.05;;;;;;;3.95;100.00;96780.59;5060004;28;24435;-73
2022/11/26 00:58:01;;;;;;;6.68;3.30;;;;;;;4.00;100.00;96785.63;5061747;28;24438;-73
2022/11/26 01:00:30;;;;;;;7.50;3.03;;;;;;;3.96;100.00;96787.41;5065737;28;24523;-73
2022/11/26 01:02:57;;;;;;;7.97;3.20;;;;;;;3.96;100.00;96789.97;5063231;28;24442;-72
2022/11/26 01:05:25;;;;;;;9.63;3.40;;;;;;;3.96;100.00;96789.13;5060412;28;24984;-72
2022/11/26 01:07:53;;;;;;;4.00;2.67;;;;;;;3.98;100.00;96785.66;5061082;28;24992;-72
2022/11/26 01:10:21;;;;;;;8.32;3.25;;;;;;;3.99;100.00;96800.16;5068306;28;24789;-72
2022/11/26 01:12:49;;;;;;;7.57;3.20;;;;;;;4.06;100.00;96800.88;5068896;28;24442;-71
2022/11/26 01:15:19;;;;;;;5.47;2.87;;;;;;;4.13;100.00;96805.00;5069271;28;24451;-72
2022/11/26 01:17:46;;;;;;;6.67;3.30;;;;;;;4.08;100.00;96809.41;5065511;28;24665;-72
2022/11/26 01:20:22;;;;;;;6.13;3.05;;;;;;;4.13;100.00;96810.97;5065359;28;24431;-71
2022/11/26 01:22:50;;;;;;;6.03;3.38;;;;;;;4.11;100.00;96815.28;5062537;28;24445;-71
2022/11/26 01:25:17;;;;;;;8.63;3.22;;;;;;;4.08;100.00;96815.38;5066953;28;24441;-72
2022/11/26 01:27:44;;;;;;;6.75;2.90;;;;;;;3.95;100.00;96819.03;5059721;28;24445;-72
2022/11/26 01:30:18;;;;;;;7.22;3.22;;;;;;;3.98;100.00;96818.97;5067767;28;24437;-72
2022/11/26 01:32:44;;;;;;;4.82;2.55;;;;;;;3.93;100.00;96820.81;5065708;28;24435;-71
2022/11/26 01:35:11;;;;;;;4.55;2.67;;;;;;;3.94;100.00;96821.66;5067546;28;24453;-72
2022/11/26 01:37:38;;;;;;;4.72;2.70;;;;;;;3.87;100.00;96820.91;5058994;28;24443;-72
2022/11/26 01:40:28;;;;;;;5.65;2.95;;;;;;;3.90;100.00;96826.00;5062835;28;24446;-72
2022/11/26 01:43:00;;;;;;;8.77;3.00;;;;;;;3.81;100.00;96833.84;5061321;28;25016;-72
2022/11/26 01:45:27;;;;;;;6.30;2.60;;;;;;;3.86;100.00;96837.19;5065856;28;24432;-72
2022/11/26 01:47:54;;;;;;;5.10;2.40;;;;;;;3.90;100.00;96830.28;5062550;28;24446;-72
2022/11/26 01:50:47;;;;;;;5.63;2.75;;;;;;;4.00;100.00;96835.16;5069015;28;24433;-71
2022/11/26 01:53:18;;;;;;;5.28;2.28;;;;;;;3.93;100.00;96841.31;5064333;28;24461;-72
2022/11/26 01:55:51;;;;;;;6.03;2.70;;;;;;;3.92;100.00;96849.00;5058122;28;24518;-72
2022/11/26 01:58:21;;;;;;;4.65;2.53;;;;;;;3.85;100.00;96844.00;5063017;28;24431;-72
2022/11/26 02:00:50;;;;;;;5.78;3.35;;;;;;;3.62;100.00;96851.28;5067445;28;24508;-72
2022/11/26 02:03:19;;;;;;;3.97;2.67;;;;;;;3.75;100.00;96851.91;5067896;28;25072;-72
2022/11/26 02:05:51;;;;;;;4.93;3.28;;;;;;;3.77;100.00;96847.59;5058547;28;24453;-72
2022/11/26 02:08:19;;;;;;;4.45;2.55;;;;;;;3.77;100.00;96847.59;5066811;28;24435;-71
2022/11/26 02:10:45;;;;;;;5.75;2.80;;;;;;;3.83;100.00;96860.28;5064237;28;24522;-71
2022/11/26 02:13:12;;;;;;;4.45;2.13;;;;;;;3.87;100.00;96851.66;5063280;28;24529;-72
2022/11/26 02:15:48;;;;;;;6.90;2.38;;;;;;;3.81;100.00;96852.63;5053004;28;24546;-72
2022/11/26 02:18:17;;;;;;;4.40;2.65;;;;;;;3.81;100.00;96854.34;5065208;28;24453;-72
2022/11/26 02:20:52;;;;;;;3.53;2.30;;;;;;;3.63;100.00;96853.81;5064363;28;24527;-72
2022/11/26 02:23:44;;;;;;;4.88;2.50;;;;;;;3.55;100.00;96858.22;5063065;28;24428;-72
2022/11/26 02:26:47;;;;;;;5.65;3.05;;;;;;;3.62;100.00;96866.63;5061647;28;24526;-72
2022/11/26 02:29:22;;;;;;;8.07;3.10;;;;;;;3.59;100.00;96876.94;5062426;28;25042;-72
2022/11/26 02:31:55;;;;;;;6.53;3.37;;;;;;;3.61;100.00;96881.16;5058147;28;24435;-72
2022/11/26 02:34:30;;;;;;;9.45;3.67;;;;;;;3.53;100.00;96882.19;5060300;28;24462;-72
2022/11/26 02:37:00;;;;;;;6.22;3.15;;;;;;;3.49;100.00;96889.06;5066389;28;24431;-72
2022/11/26 02:39:28;;;;;;;6.07;3.03;;;;;;;3.46;100.00;96886.56;5060010;28;24431;-71
2022/11/26 02:41:57;;;;;;;6.50;2.70;;;;;;;3.53;100.00;96884.75;5057116;28;24438;-71
2022/11/26 02:44:25;;;;;;;4.32;2.28;;;;;;;3.52;100.00;96883.91;5060312;28;24437;-72
2022/11/26 02:47:01;;;;;;;5.78;2.55;;;;;;;3.56;100.00;96890.66;5059366;28;24446;-72
2022/11/26 02:49:30;;;;;;;9.55;2.65;;;;;;;3.54;100.00;96894.97;5067048;28;24434;-72
2022/11/26 02:52:01;;;;;;;5.60;2.70;;;;;;;3.63;100.00;96892.25;5057062;28;24443;-72
2022/11/26 02:54:28;;;;;;;4.35;2.35;;;;;;;3.67;100.00;96892.16;5058185;28;24451;-72
2022/11/26 02:56:56;;;;;;;4.88;2.25;;;;;;;3.56;100.00;96902.59;5062450;28;24430;-72
2022/11/26 02:59:23;;;;;;;6.00;2.55;;;;;;;3.55;100.00;96904.31;5068334;28;24441;-72
2022/11/26 03:01:53;;;;;;;7.25;2.33;;;;;;;3.42;100.00;96913.09;5066539;28;24442;-72
2022/11/26 03:04:28;;;;;;;10.73;2.30;;;;;;;3.30;100.00;96911.59;5059876;28;24438;-72
2022/11/26 03:06:57;;;;;;;4.95;2.10;;;;;;;3.38;100.00;96919.97;5060127;28;25037;-72
2022/11/26 03:09:24;;;;;;;4.63;2.22;;;;;;;3.41;100.00;96916.50;5063830;28;24445;-72
2022/11/26 03:11:50;;;;;;;3.53;2.30;;;;;;;3.47;100.00;96907.91;5065588;28;24439;-72
2022/11/26 03:14:17;;;;;;;4.15;2.30;;;;;;;3.51;100.00;96905.25;5060376;28;25205;-71
2022/11/26 03:16:43;;;;;;;4.15;2.20;;;;;;;3.56;100.00;96913.72;5063293;28;24431;-71
2022/11/26 03:19:10;;;;;;;4.43;2.50;;;;;;;3.51;100.00;96912.94;5065776;28;24847;-71
2022/11/26 03:21:38;;;;;;;5.90;2.72;;;;;;;3.56;100.00;96912.84;5060595;28;24947;-71
2022/11/26 03:24:05;;;;;;;4.70;2.40;;;;;;;3.58;100.00;96913.69;5058636;28;24431;-71
2022/11/26 03:26:31;;;;;;;4.90;2.50;;;;;;;3.64;100.00;96918.72;5060881;28;24951;-71
2022/11/26 03:28:58;;;;;;;5.85;2.20;;;;;;;3.66;100.00;96918.66;5066404;28;24826;-71
2022/11/26 03:31:24;;;;;;;5.60;2.70;;;;;;;3.59;100.00;96918.75;5061655;28;24446;-71
2022/11/26 03:33:51;;;;;;;6.27;2.23;;;;;;;3.62;100.00;96923.84;5056798;28;24435;-71
2022/11/26 03:36:17;;;;;;;6.23;2.63;;;;;;;3.56;100.00;96923.09;5065048;28;24521;-72
2022/11/26 03:38:45;;;;;;;3.55;2.15;;;;;;;3.63;100.00;96920.44;5063271;28;24442;-72
2022/11/26 03:41:12;;;;;;;5.05;2.38;;;;;;;3.52;100.00;96921.47;5060120;28;24473;-72
2022/11/26 03:43:38;;;;;;;10.77;2.63;;;;;;;3.52;100.00;96936.81;5056345;28;25004;-72
2022/11/26 03:46:05;;;;;;;5.25;2.40;;;;;;;3.55;100.00;96940.19;5064569;28;24433;-72
2022/11/26 03:48:32;;;;;;;7.60;2.07;;;;;;;3.57;100.00;96940.19;5067981;28;24465;-72
2022/11/26 03:50:58;;;;;;;4.57;2.30;;;;;;;3.53;100.00;96941.09;5068368;28;24490;-72
2022/11/26 03:53:25;;;;;;;6.32;2.92;;;;;;;3.30;100.00;96942.31;5056951;28;24431;-72
2022/11/26 03:55:52;;;;;;;23.55;3.83;;;;;;;3.09;100.00;96948.59;5062873;28;24458;-72
2022/11/26 03:58:19;;;;;;;10.98;2.70;;;;;;;3.01;100.00;96950.41;5068654;28;24445;-72
2022/11/26 04:00:45;;;;;;;24.85;3.40;;;;;;;2.95;100.00;96947.09;5069284;28;24450;-72
2022/11/26 04:03:12;;;;;;;8.57;2.50;;;;;;;2.96;100.00;96946.22;5062418;28;24446;-72
2022/11/26 04:05:39;;;;;;;15.27;2.80;;;;;;;2.94;100.00;96941.13;5064932;28;24431;-72
2022/11/26 04:08:05;;;;;;;3.53;2.27;;;;;;;2.97;100.00;96937.69;5067458;28;24524;-72
2022/11/26 04:10:32;;;;;;;4.38;2.47;;;;;;;3.06;100.00;96935.81;5067839;28;24439;-72
2022/11/26 04:13:00;;;;;;;4.32;2.30;;;;;;;3.15;100.00;96937.41;5063529;28;25246;-72
2022/11/26 04:15:26;;;;;;;3.40;2.40;;;;;;;3.18;100.00;96941.63;5063200;28;24459;-71
2022/11/26 04:17:53;;;;;;;3.63;2.15;;;;;;;3.27;100.00;96942.34;5070572;28;24442;-71
2022/11/26 04:20:19;;;;;;;5.75;3.15;;;;;;;3.25;100.00;96940.69;5065731;28;24442;-72
2022/11/26 04:22:46;;;;;;;6.47;3.08;;;;;;;3.31;100.00;96944.00;5059506;28;24450;-72
2022/11/26 04:25:12;;;;;;;5.55;3.05;;;;;;;3.15;100.00;96947.63;5069191;28;24431;-72
2022/11/26 04:27:39;;;;;;;8.43;3.30;;;;;;;3.12;100.00;96940.88;5070469;28;25018;-72
2022/11/26 04:30:09;;;;;;;9.75;3.00;;;;;;;3.12;100.00;96948.53;5064474;28;24431;-72
2022/11/26 04:32:38;;;;;;;3.33;2.60;;;;;;;3.04;100.00;96950.38;5062358;28;24423;-72
2022/11/26 04:35:06;;;;;;;4.75;2.80;;;;;;;3.03;100.00;96950.38;5068976;28;24447;-72
2022/11/26 04:37:32;;;;;;;3.92;2.90;;;;;;;3.11;100.00;96956.22;5063616;28;24441;-71
2022/11/26 04:39:59;;;;;;;13.23;7.43;;;;;;;3.13;100.00;96954.50;5067081;28;24431;-71
2022/11/26 04:42:25;;;;;;;20.02;11.25;;;;;;;3.19;100.00;96948.44;5062231;28;25233;-71
2022/11/26 04:44:52;;;;;;;11.10;6.35;;;;;;;3.18;100.00;96950.16;5067378;28;24426;-72
2022/11/26 04:47:20;;;;;;;10.23;4.95;;;;;;;3.18;100.00;96947.59;5071197;28;24454;-72
2022/11/26 04:49:46;;;;;;;29.67;3.50;;;;;;;3.16;100.00;96941.66;5066832;28;24441;-72
2022/11/26 04:52:13;;;;;;;22.73;3.00;;;;;;;3.10;100.00;96944.31;5063089;28;24435;-72
2022/11/26 04:54:39;;;;;;;9.17;2.87;;;;;;;3.07;100.00;96942.63;5070671;28;24453;-71
2022/11/26 04:57:06;;;;;;;4.93;3.50;;;;;;;3.07;100.00;96944.34;5070390;28;24431;-71
2022/11/26 04:59:32;;;;;;;5.03;3.45;;;;;;;3.03;100.00;96943.53;5063738;28;24431;-72
2022/11/26 05:01:59;;;;;;;10.23;6.30;;;;;;;2.78;100.00;96943.06;5067036;28;25015;-72
2022/11/26 05:04:27;;;;;;;10.85;6.18;;;;;;;2.66;100.00;96944.03;5070201;28;24434;-72
2022/11/26 05:06:54;;;;;;;7.95;4.45;;;;;;;2.50;100.00;96950.22;5063268;28;24435;-72
2022/11/26 05:09:21;;;;;;;8.20;3.63;;;;;;;2.39;100.00;96960.56;5063761;28;24441;-72
2022/11/26 05:11:48;;;;;;;3.85;2.70;;;;;;;2.37;100.00;96959.78;5070119;28;24442;-71
2022/11/26 05:14:14;;;;;;;5.20;2.40;;;;;;;2.42;100.00;96962.25;5068211;28;24494;-74
2022/11/26 05:16:41;;;;;;;5.00;2.60;;;;;;;2.54;100.00;96962.09;5064991;28;25003;-72
2022/11/26 05:19:07;;;;;;;2.60;2.40;;;;;;;2.52;100.00;96978.31;5065333;28;24441;-71
2022/11/26 05:21:35;;;;;;;13.52;2.47;;;;;;;2.21;100.00;96978.69;5068161;28;24435;-71
2022/11/26 05:24:02;;;;;;;3.28;1.73;;;;;;;2.29;100.00;96971.75;5070192;28;24442;-71
2022/11/26 05:26:28;;;;;;;3.20;1.75;;;;;;;2.36;100.00;96972.56;5066560;28;24485;-71
2022/11/26 05:28:55;;;;;;;2.90;1.38;;;;;;;2.35;100.00;96974.25;5064789;28;24434;-72
2022/11/26 05:31:21;;;;;;;2.33;1.77;;;;;;;2.25;100.00;96976.94;5068240;28;24442;-73
2022/11/26 05:33:48;;;;;;;3.67;2.22;;;;;;;2.11;100.00;96983.06;5067946;28;25053;-74
2022/11/26 05:36:14;;;;;;;3.20;2.20;;;;;;;2.03;100.00;96984.81;5068896;28;24493;-72
2022/11/26 05:38:42;;;;;;;5.10;2.25;;;;;;;2.01;100.00;96984.00;5061151;28;24431;-72
2022/11/26 05:41:09;;;;;;;3.63;2.33;;;;;;;2.06;100.00;96987.34;5069669;28;24437;-72
2022/11/26 05:43:35;;;;;;;3.60;2.33;;;;;;;2.17;100.00;96984.69;5062295;28;24432;-73
2022/11/26 05:46:05;;;;;;;2.53;2.33;;;;;;;2.20;100.00;96996.59;5070623;28;24454;-73
2022/11/26 05:48:31;;;;;;;2.97;2.47;;;;;;;2.24;100.00;96988.88;5067776;28;24439;-72
2022/11/26 05:50:59;;;;;;;9.02;3.00;;;;;;;2.21;100.00;96994.00;5070851;28;24800;-72
2022/11/26 05:53:25;;;;;;;8.77;2.53;;;;;;;2.20;100.00;96988.94;5061976;28;24435;-73
2022/11/26 05:55:53;;;;;;;3.33;2.15;;;;;;;2.15;100.00;96997.50;5070541;28;24462;-73
2022/11/26 05:58:20;;;;;;;10.70;2.47;;;;;;;1.91;100.00;96998.56;5062748;28;24435;-72
2022/11/26 06:00:47;;;;;;;11.07;2.58;;;;;;;1.66;100.00;97005.56;5064647;28;24434;-72
2022/11/26 06:03:13;;;;;;;13.77;2.63;;;;;;;1.50;100.00;97004.00;5063613;28;24422;-71
2022/11/26 06:05:40;;;;;;;22.20;1.98;;;;;;;1.35;100.00;97001.56;5069864;28;24434;-71
2022/11/26 06:08:06;;;;;;;25.20;1.70;;;;;;;1.31;100.00;97008.41;5064858;28;24430;-72
2022/11/26 06:10:33;;;;;;;6.07;1.17;;;;;;;1.43;100.00;97010.03;5069113;28;24431;-73
2022/11/26 06:13:01;;;;;;;4.05;1.48;;;;;;;1.58;100.00;97003.94;5065390;28;24427;-72
2022/11/26 06:15:27;;;;;;;8.40;1.35;;;;;;;1.64;100.00;97014.97;5068350;28;25031;-72
2022/11/26 06:17:54;;;;;;;4.60;1.42;;;;;;;1.66;100.00;97013.25;5065595;28;24438;-71
2022/11/26 06:20:20;;;;;;;8.73;1.50;;;;;;;1.70;100.00;97017.47;5067987;28;24983;-71
2022/11/26 06:22:47;;;;;;;3.95;1.60;;;;;;;1.52;100.00;97015.06;5065508;28;24441;-72
2022/11/26 06:25:14;;;;;;;7.38;1.50;;;;;;;1.54;100.00;97015.91;5069067;28;24427;-73
2022/11/26 06:27:41;;;;;;;11.60;1.70;;;;;;;1.47;100.00;97023.59;5066146;28;24431;-72
2022/11/26 06:30:11;;;;;;;7.15;1.55;;;;;;;1.48;100.00;97015.09;5068911;28;24438;-72
2022/11/26 06:32:37;;;;;;;15.02;1.77;;;;;;;1.31;100.00;97021.16;5065715;28;24430;-72
2022/11/26 06:35:04;;;;;;;9.32;1.45;;;;;;;1.20;100.00;97028.88;5068987;28;24458;-72
2022/11/26 06:37:31;;;;;;;15.35;2.20;;;;;;;1.30;100.00;97033.91;5058100;28;24433;-72
2022/11/26 06:39:57;;;;;;;1.70;1.50;;;;;;;1.44;100.00;97035.53;5063585;28;25015;-73
2022/11/26 06:42:24;;;;;;;12.23;1.60;;;;;;;1.55;100.00;97044.81;5066070;28;24441;-71
2022/11/26 06:44:50;;;;;;;6.63;1.70;;;;;;;1.65;100.00;97049.00;5069038;28;25013;-71
2022/11/26 06:47:18;;;;;;;3.63;1.65;;;;;;;1.69;100.00;97056.63;5065671;28;24434;-72
2022/11/26 06:49:45;;;;;;;6.28;1.20;;;;;;;1.80;100.00;97064.22;5063454;28;24436;-72
2022/11/26 06:52:12;;;;;;;17.25;1.52;;;;;;;1.79;100.00;97070.19;5065758;28;25105;-72
2022/11/26 06:54:39;;;;;;;12.32;1.55;;;;;;;1.86;100.00;97071.00;5064963;28;24427;-71
2022/11/26 06:57:05;;;;;;;14.43;1.70;;;;;;;1.86;100.00;97073.56;5066702;28;24462;-71
2022/11/26 06:59:32;;;;;;;28.00;2.00;;;;;;;1.93;100.00;97077.75;5065776;28;24719;-72
2022/11/26 07:01:59;;;;;;;21.40;2.03;;;;;;;1.93;100.00;97078.59;5065940;28;24802;-72
2022/11/26 07:04:26;;;;;;;26.35;1.60;;;;;;;1.93;100.00;97082.88;5066067;28;24807;-72
2022/11/26 07:06:53;;;;;;;56.72;2.55;;;;;;;1.88;100.00;97094.81;5065041;28;24979;-73
2022/11/26 07:09:20;;;;;;;4.60;1.33;;;;;;;1.88;100.00;97089.69;5066952;28;24431;-72
2022/11/26 07:11:47;;;;;;;31.80;1.88;;;;;;;1.88;100.00;97094.81;5058245;28;24995;-72
2022/11/26 07:14:14;;;;;;;19.25;1.90;;;;;;;1.80;100.00;97104.25;5067422;28;24979;-72
2022/11/26 07:16:40;;;;;;;13.98;1.50;;;;;;;1.73;100.00;97103.44;5063795;28;25020;-71
2022/11/26 07:19:07;;;;;;;11.25;1.92;;;;;;;1.76;100.00;97105.13;5068291;28;24443;-72
2022/11/26 07:21:35;;;;;;;17.77;2.17;;;;;;;1.68;100.00;97103.47;5062945;28;24454;-72
2022/11/26 07:24:01;;;;;;;18.48;2.08;;;;;;;1.66;100.00;97112.00;5068648;28;24785;-71
2022/11/26 07:26:28;;;;;;;23.55;2.00;;;;;;;1.69;100.00;97109.41;5056228;28;24430;-71
2022/11/26 07:28:54;;;;;;;7.10;1.70;;;;;;;1.67;100.00;97116.25;5068041;28;24431;-71
2022/11/26 07:31:22;;;;;;;7.40;1.80;;;;;;;1.77;100.00;97114.47;5061836;28;24443;-72
2022/11/26 07:33:50;;;;;;;6.88;1.88;;;;;;;1.74;100.00;97122.16;5068356;28;24435;-72
2022/11/26 07:36:18;;;;;;;2.97;1.88;;;;;;;1.78;100.00;97119.59;5062773;28;25024;-72
2022/11/26 07:38:46;;;;;;;17.02;5.10;;;;;;;1.80;100.00;97124.69;5068879;28;24435;-74
2022/11/26 07:41:16;;;;;;;15.13;5.15;;;;;;;1.95;100.00;97127.13;5063218;28;25018;-74
2022/11/26 07:43:43;;;;;;;7.43;4.70;;;;;;;2.06;100.00;97120.22;5061956;28;24441;-72
2022/11/26 07:46:11;;;;;;;14.65;4.07;;;;;;;1.94;100.00;97125.44;5063676;28;24423;-72
2022/11/26 07:48:39;;;;;;;11.10;4.73;;;;;;;1.92;100.00;97130.53;5068308;28;24442;-73
2022/11/26 07:51:06;;;;;;;7.13;4.80;;;;;;;2.06;100.00;97121.94;5064379;28;24439;-72
2022/11/26 07:53:35;;;;;;;12.32;4.13;;;;;;;2.18;100.00;97127.78;5067184;28;24422;-72
2022/11/26 07:56:05;;;;;;;5.10;3.20;;;;;;;2.35;100.00;97137.03;5064583;28;24454;-72
2022/11/26 07:58:32;;;;;;;8.48;3.28;;;;;;;2.35;100.00;97137.03;5068490;28;24434;-72
2022/11/26 08:01:06;;;;;;;13.35;3.33;;;;;;;2.43;100.00;97137.81;5064294;28;25006;-72
2022/11/26 08:03:33;;;;;;;21.67;4.60;;;;;;;2.38;100.00;97135.31;5067495;28;24992;-72
2022/11/26 08:05:59;;;;;;;12.57;4.40;;;;;;;2.48;100.00;97137.78;5064977;28;24429;-72
2022/11/26 08:08:26;;;;;;;23.20;4.80;;;;;;;2.63;100.00;97138.50;5066980;28;24796;-72
2022/11/26 08:10:52;;;;;;;22.98;5.15;;;;;;;2.45;100.00;97142.91;5064769;28;24445;-72
2022/11/26 08:13:20;;;;;;;7.57;4.97;;;;;;;2.73;100.00;97140.94;5065207;28;24516;-71
2022/11/26 08:15:48;;;;;;;7.55;5.50;;;;;;;2.91;100.00;97138.22;5064874;28;24820;-71
2022/11/26 08:18:14;;;;;;;8.55;6.13;;;;;;;3.09;100.00;97139.72;5067201;28;24510;-71
2022/11/26 08:20:41;;;;;;;8.30;6.20;;;;;;;3.26;100.00;97136.94;5065025;28;24449;-71
2022/11/26 08:23:07;;;;;;;10.33;6.40;;;;;;;3.28;100.00;97138.63;5067118;28;24820;-72
2022/11/26 08:25:35;;;;;;;9.18;5.82;;;;;;;3.37;100.00;97142.78;5064964;28;24975;-74
2022/11/26 08:28:02;;;;;;;5.22;3.22;;;;;;;3.40;100.00;97142.75;5067091;28;25184;-72
2022/11/26 08:30:30;;;;;;;5.97;2.90;;;;;;;3.43;100.00;97139.31;5064644;28;24435;-72
2022/11/26 08:32:56;;;;;;;10.15;3.75;;;;;;;3.47;100.00;97130.72;5067336;28;24426;-72
2022/11/26 08:35:23;;;;;;;3.83;3.50;;;;;;;3.46;100.00;97129.03;5065356;28;24431;-73
2022/11/26 08:37:49;;;;;;;5.40;3.17;;;;;;;3.31;100.00;97137.75;5067452;28;24431;-73
2022/11/26 08:40:16;;;;;;;7.22;3.25;;;;;;;3.47;100.00;97131.56;5065293;28;24431;-74
2022/11/26 08:42:42;;;;;;;8.63;4.35;;;;;;;3.75;100.00;97129.47;5068321;28;24441;-71
2022/11/26 08:45:10;;;;;;;5.28;3.85;;;;;;;3.92;100.00;97136.91;5068775;28;24438;-71
2022/11/26 08:47:37;;;;;;;7.93;4.65;;;;;;;4.12;100.00;97137.47;5071534;28;24429;-73
2022/11/26 08:50:05;;;;;;;5.50;4.60;;;;;;;4.31;100.00;97135.47;5069445;28;24430;-73
2022/11/26 08:52:31;;;;;;;12.50;5.03;;;;;;;4.36;100.00;97138.78;5071150;28;25077;-74
2022/11/26 08:54:58;;;;;;;7.25;4.45;;;;;;;4.60;100.00;97142.66;5069018;28;24438;-72
2022/11/26 08:57:24;;;;;;;49.23;10.30;;;;;;;4.32;100.00;97149.97;5060294;28;25044;-72
2022/11/26 08:59:53;;;;;;;31.43;8.63;;;;;;;3.99;100.00;97150.50;5063125;28;24440;-73
2022/11/26 09:02:20;;;;;;;47.70;8.60;;;;;;;3.82;100.00;97153.28;5067699;28;24438;-73
2022/11/26 09:04:47;;;;;;;53.10;8.13;;;;;;;3.81;100.00;97151.59;5066628;28;24449;-73
2022/11/26 09:07:14;;;;;;;11.27;7.55;;;;;;;3.97;100.00;97149.66;5069785;28;24805;-73
2022/11/26 09:09:41;;;;;;;58.22;7.93;;;;;;;3.73;100.00;97143.19;5066446;28;24438;-73
2022/11/26 09:12:08;;;;;;;51.90;6.45;;;;;;;3.44;100.00;97144.41;5070494;28;24504;-71
2022/11/26 09:14:37;;;;;;;41.85;5.82;;;;;;;3.29;100.00;97153.13;5066590;28;24441;-73
2022/11/26 09:17:03;;;;;;;57.83;6.20;;;;;;;3.11;100.00;97143.09;5071137;28;24700;-73
2022/11/26 09:19:30;;;;;;;16.40;4.72;;;;;;;3.12;100.00;97149.94;5066240;28;24431;-75
2022/11/26 09:21:58;;;;;;;23.83;4.53;;;;;;;3.25;100.00;97146.34;5070936;28;24450;-75
2022/11/26 09:24:25;;;;;;;17.05;5.53;;;;;;;3.55;100.00;97149.38;5068730;28;24442;-74
2022/11/26 09:26:52;;;;;;;23.90;6.60;;;;;;;3.75;100.00;97149.97;5073090;28;24429;-75
2022/11/26 09:29:20;;;;;;;16.50;9.20;;;;;;;4.00;100.00;97155.59;5068590;28;24442;-75
2022/11/26 09:31:48;;;;;;;28.23;15.67;;;;;;;4.24;100.00;97149.25;5071079;28;24434;-74
2022/11/26 09:34:15;;;;;;;23.20;13.85;;;;;;;4.56;100.00;97161.56;5066639;28;24434;-74
2022/11/26 09:36:42;;;;;;;10.90;7.93;;;;;;;4.48;100.00;97163.38;5071147;28;25221;-75
2022/11/26 09:39:12;;;;;;;6.70;5.53;;;;;;;4.52;100.00;97177.84;5066453;28;24430;-73
2022/11/26 09:41:43;;;;;;;6.87;5.70;;;;;;;4.81;100.00;97167.09;5064114;28;25034;-74
2022/11/26 09:44:31;;;;;;;9.85;5.82;;;;;;;4.88;100.00;97169.56;5066922;28;24473;-73
2022/11/26 09:47:09;;;;;;;7.65;5.40;;;;;;;4.97;100.00;97172.81;5068813;28;24959;-71
2022/11/26 09:49:40;;;;;;;8.05;5.45;;;;;;;5.09;100.00;97159.75;5062622;28;24438;-72
2022/11/26 09:52:09;;;;;;;12.90;5.15;;;;;;;5.13;100.00;97163.09;5069862;28;24446;-72
2022/11/26 09:54:38;;;;;;;7.68;5.70;;;;;;;5.27;100.00;97166.25;5065872;28;24438;-72
2022/11/26 09:57:17;;;;;;;10.07;5.50;;;;;;;5.51;100.00;97170.03;5069718;28;24508;-72
2022/11/26 09:59:46;;;;;;;13.02;4.63;;;;;;;5.74;100.00;97172.13;5068012;28;24992;-72
2022/11/26 10:02:13;;;;;;;7.00;4.68;;;;;;;5.89;100.00;97176.09;5068759;28;24443;-72
2022/11/26 10:04:40;;;;;;;12.98;4.60;;;;;;;6.02;100.00;97172.44;5067804;28;24988;-74
2022/11/26 10:07:22;;;;;;;15.63;4.60;;;;;;;6.24;100.00;97171.94;5070018;28;24476;-72
2022/11/26 10:10:01;;;;;;;8.70;4.32;;;;;;;6.43;100.00;97167.19;5069898;28;25003;-72
2022/11/26 10:12:38;;;;;;;10.38;4.82;;;;;;;6.82;100.00;97165.34;5066581;28;24438;-72
2022/11/26 10:15:12;;;;;;;10.07;5.03;;;;;;;6.73;100.00;97161.28;5062572;28;24991;-73
2022/11/26 10:17:48;;;;;;;8.27;5.40;;;;;;;6.65;100.00;97163.22;5066653;28;25015;-72
2022/11/26 10:20:42;;;;;;;12.60;6.60;;;;;;;6.43;100.00;97162.91;5070186;28;24430;-73
2022/11/26 10:23:18;;;;;;;13.13;5.90;;;;;;;6.55;100.00;97166.91;5053551;28;24431;-73
2022/11/26 10:25:49;;;;;;;9.03;5.90;;;;;;;6.69;100.00;97164.00;5070534;28;25059;-75
2022/11/26 10:28:20;;;;;;;14.13;5.35;;;;;;;7.07;100.00;97162.16;5065566;28;24442;-74
2022/11/26 10:30:58;;;;;;;13.73;5.50;;;;;;;6.89;100.00;97163.47;5064326;28;20802;-73
2022/11/26 10:33:30;;;;;;;11.05;5.03;;;;;;;7.10;100.00;97165.50;5061843;28;24423;-74
2022/11/26 10:35:56;;;;;;;6.95;4.32;;;;;;;7.33;100.00;97166.59;5069878;28;24437;-74
2022/11/26 10:38:23;;;;;;;8.70;5.35;;;;;;;7.40;100.00;97163.81;5067405;28;24521;-73
2022/11/26 10:40:51;;;;;;;14.85;5.55;;;;;;;7.41;100.00;97170.63;5064785;28;20767;-74
2022/11/26 10:43:20;;;;;;;10.47;3.93;;;;;;;7.51;100.00;97161.75;5066892;28;20818;-73
2022/11/26 10:45:49;;;;;;;11.70;4.15;;;;;;;7.75;100.00;97164.53;5065103;28;20774;-74
2022/11/26 10:48:23;;;;;;;7.93;3.85;;;;;;;7.70;100.00;97162.09;5067516;28;24781;-75
2022/11/26 10:51:04;;;;;;;6.43;3.40;;;;;;;7.41;100.00;97160.31;5065436;28;24798;-75
2022/11/26 10:53:35;;;;;;;8.00;3.10;;;;;;;7.45;100.00;97153.34;5061725;28;24431;-74
2022/11/26 10:56:05;;;;;;;7.57;3.30;;;;;;;7.48;100.00;97148.97;5062359;28;20795;-73
2022/11/26 10:58:40;;;;;;;6.28;2.92;;;;;;;7.33;100.00;97146.81;5059537;28;20692;-73
2022/11/26 11:01:07;;;;;;;6.55;2.90;;;;;;;7.47;100.00;97136.13;5061873;28;20693;-74
2022/11/26 11:03:38;;;;;;;8.98;3.17;;;;;;;7.51;100.00;97138.56;5067965;28;24430;-74
2022/11/26 11:06:23;;;;;;;10.15;2.47;;;;;;;7.13;100.00;97138.81;5065115;28;24450;-74
2022/11/26 11:08:51;;;;;;;9.10;3.13;;;;;;;6.96;100.00;97137.50;5068035;28;21580;-74
2022/11/26 11:11:21;;;;;;;10.57;3.28;;;;;;;7.10;100.00;97136.31;5065193;28;24850;-74
2022/11/26 11:13:49;;;;;;;6.38;3.17;;;;;;;7.11;100.00;97131.09;5068520;28;20791;-74
2022/11/26 11:16:22;;;;;;;7.72;3.70;;;;;;;7.22;100.00;97135.97;5065510;28;21337;-75
2022/11/26 11:18:51;;;;;;;6.68;2.72;;;;;;;7.13;100.00;97133.66;5067934;28;21212;-75
2022/11/26 11:21:20;;;;;;;10.73;3.53;;;;;;;7.61;100.00;97136.56;5065707;28;20770;-74
2022/11/26 11:23:47;;;;;;;7.90;2.78;;;;;;;7.48;100.00;97138.66;5068044;28;24813;-74
2022/11/26 11:26:19;;;;;;;10.85;4.85;;;;;;;7.39;100.00;97138.94;5065911;28;20773;-73
2022/11/26 11:28:49;;;;;;;5.88;2.88;;;;;;;7.26;100.00;97143.56;5069006;28;20747;-74
2022/11/26 11:31:18;;;;;;;11.65;2.72;;;;;;;7.49;100.00;97140.34;5065793;28;24437;-73
2022/11/26 11:33:45;;;;;;;9.45;3.03;;;;;;;7.45;100.00;97135.31;5068361;28;21363;-73
2022/11/26 11:36:24;;;;;;;10.35;3.67;;;;;;;7.25;100.00;97135.88;5065179;28;24442;-73